Terminal Aerodrome Forecast
Issued by NWS

Home | Current Version | Previous Version | Text Only | Print | Product List | Glossary On
Versions: 1 2 3 4 5 6 7 8 9 10 11 12 13 14 15 16 17
000
FTAK31 PANC 210539
TAFAHO
TAF
PAHO 210539Z 2106/2206 VRB05KT P6SM VCSH SCT020 OVC035
      TEMPO 2106/2110 4SM -SHSN BR BKN012 OVC020
     FM211000 24008KT 6SM BR VCSH SCT010 OVC025
     FM212200 25009KT P6SM SCT030 BKN070=

USA.gov is the U.S. government's official web portal to all federal, state and local government web resources and services.